createdAt,value
2022-08-05T00:00:22.895Z,25.62
2022-08-05T00:01:20.911Z,25.63
2022-08-05T00:02:07.833Z,25.62
2022-08-05T00:02:52.119Z,25.62
2022-08-05T00:03:34.712Z,25.62
2022-08-05T00:04:18.221Z,25.62
2022-08-05T00:04:59.209Z,25.62
2022-08-05T00:06:04.755Z,25.63
2022-08-05T00:06:42.755Z,25.62
2022-08-05T00:07:59.440Z,25.63
2022-08-05T00:08:34.509Z,25.63
2022-08-05T00:09:19.680Z,25.63
2022-08-05T00:09:59.363Z,25.62
2022-08-05T00:10:44.731Z,25.62
2022-08-05T00:11:30.508Z,25.63
2022-08-05T00:12:15.231Z,25.61
2022-08-05T00:12:59.573Z,25.64
2022-08-05T00:13:43.955Z,25.63
2022-08-05T00:14:36.087Z,25.63
2022-08-05T00:15:57.578Z,25.63
2022-08-05T00:16:36.043Z,25.63
2022-08-05T00:17:20.829Z,25.63
2022-08-05T00:18:15.050Z,25.63
2022-08-05T00:19:05.069Z,25.63
2022-08-05T00:20:01.747Z,25.63
2022-08-05T00:20:45.975Z,25.63
2022-08-05T00:21:35.608Z,25.64
2022-08-05T00:22:20.681Z,25.63
2022-08-05T00:23:12.647Z,25.63
2022-08-05T00:24:10.493Z,25.64
2022-08-05T00:24:55.191Z,25.64
2022-08-05T00:25:45.633Z,25.64
2022-08-05T00:26:30.242Z,25.63
2022-08-05T00:27:17.908Z,25.64
2022-08-05T00:28:05.943Z,25.64
2022-08-05T00:28:54.953Z,25.64
2022-08-05T00:29:43.078Z,25.64
2022-08-05T00:30:31.934Z,25.64
2022-08-05T00:31:13.832Z,25.63
2022-08-05T00:32:13.553Z,25.63
2022-08-05T00:32:59.410Z,25.62
2022-08-05T00:34:56.279Z,25.64
2022-08-05T00:35:05.710Z,25.63
2022-08-05T00:36:16.607Z,25.64
2022-08-05T00:37:10.663Z,25.63
2022-08-05T00:37:59.437Z,25.63
2022-08-05T00:38:47.938Z,25.64
2022-08-05T00:39:36.938Z,25.63
2022-08-05T00:40:27.889Z,25.64
2022-08-05T00:41:11.697Z,25.64
2022-08-05T00:41:57.405Z,25.64
2022-08-05T00:42:42.402Z,25.63
2022-08-05T00:43:46.582Z,25.63
2022-08-05T00:44:34.308Z,25.65
2022-08-05T00:45:38.951Z,25.64
2022-08-05T00:46:42.501Z,25.64
2022-08-05T00:47:53.434Z,25.63
2022-08-05T00:48:31.675Z,25.64
2022-08-05T00:49:18.603Z,25.64
2022-08-05T00:50:10.878Z,25.64
2022-08-05T00:50:59.826Z,25.65
2022-08-05T00:51:54.518Z,25.64
2022-08-05T00:52:48.108Z,25.64
2022-08-05T00:54:01.026Z,25.64
2022-08-05T00:54:34.548Z,25.64
2022-08-05T00:55:21.999Z,25.64
2022-08-05T00:56:17.209Z,25.64
2022-08-05T00:57:04.601Z,25.64
2022-08-05T00:57:57.868Z,25.64
2022-08-05T00:58:46.291Z,25.64
2022-08-05T00:59:42.051Z,25.64
2022-08-05T01:00:30.296Z,25.64
2022-08-05T01:01:42.247Z,25.64
2022-08-05T01:02:24.294Z,25.64
2022-08-05T01:03:09.552Z,25.63
2022-08-05T01:03:58.056Z,25.64
2022-08-05T01:04:50.383Z,25.63
2022-08-05T01:05:35.597Z,25.63
2022-08-05T01:06:32.719Z,25.64
2022-08-05T01:07:31.495Z,25.64
2022-08-05T01:08:30.705Z,25.63
2022-08-05T01:09:17.254Z,25.64
2022-08-05T01:10:09.145Z,25.64
2022-08-05T01:10:57.948Z,25.63
2022-08-05T01:11:44.921Z,25.63
2022-08-05T01:12:33.148Z,25.64
2022-08-05T01:13:27.477Z,25.63
2022-08-05T01:14:28.030Z,25.63
2022-08-05T01:15:35.331Z,25.63
2022-08-05T01:16:20.991Z,25.63
2022-08-05T01:17:10.968Z,25.63
2022-08-05T01:17:58.597Z,25.63
2022-08-05T01:18:56.423Z,25.63
2022-08-05T01:20:00.674Z,25.63
2022-08-05T01:20:41.114Z,25.63
2022-08-05T01:21:38.091Z,25.63
2022-08-05T01:22:27.771Z,25.63
2022-08-05T01:23:15.520Z,25.63
2022-08-05T01:24:05.346Z,25.62
2022-08-05T01:24:59.250Z,25.62
2022-08-05T01:25:53.279Z,25.63
2022-08-05T01:26:38.090Z,25.63
2022-08-05T01:27:29.647Z,25.63
2022-08-05T01:28:20.434Z,25.62
2022-08-05T01:29:11.352Z,25.63
2022-08-05T01:30:01.152Z,25.63
2022-08-05T01:30:53.710Z,25.62
2022-08-05T01:31:44.575Z,25.63
2022-08-05T01:32:30.455Z,25.63
2022-08-05T01:33:19.702Z,25.62
2022-08-05T01:34:03.780Z,25.63
2022-08-05T01:34:53.768Z,25.62
2022-08-05T01:35:51.988Z,25.62
2022-08-05T01:36:42.305Z,25.63
2022-08-05T01:37:32.954Z,25.62
2022-08-05T01:38:26.896Z,25.62
2022-08-05T01:39:08.563Z,25.61
2022-08-05T01:39:59.163Z,25.61
2022-08-05T01:40:44.760Z,25.62
2022-08-05T01:41:32.284Z,25.61
2022-08-05T01:42:22.896Z,25.61
2022-08-05T01:43:10.324Z,25.61
2022-08-05T01:44:05.607Z,25.60
2022-08-05T01:44:54.268Z,25.60
2022-08-05T01:45:43.146Z,25.60
2022-08-05T01:46:42.279Z,25.60
2022-08-05T01:47:38.872Z,25.60
2022-08-05T01:48:27.645Z,25.58
2022-08-05T01:49:23.096Z,25.58
2022-08-05T01:50:07.769Z,25.58
2022-08-05T01:51:00.076Z,25.58
2022-08-05T01:51:55.392Z,25.57
2022-08-05T01:52:42.803Z,25.57
2022-08-05T01:53:58.126Z,25.56
2022-08-05T01:54:34.551Z,25.56
2022-08-05T01:55:31.000Z,25.56
2022-08-05T01:58:10.038Z,25.56
2022-08-05T01:58:12.462Z,25.54
2022-08-05T01:58:40.944Z,25.55
2022-08-05T01:59:28.545Z,25.54
2022-08-05T02:00:18.375Z,25.54
2022-08-05T02:01:24.535Z,25.54
2022-08-05T02:02:10.643Z,25.53
2022-08-05T02:02:59.123Z,25.53
2022-08-05T02:03:44.565Z,25.53
2022-08-05T02:04:30.190Z,25.52
2022-08-05T02:05:18.876Z,25.53
2022-08-05T02:06:33.471Z,25.52
2022-08-05T02:07:21.941Z,25.52
2022-08-05T02:08:06.687Z,25.53
2022-08-05T02:08:59.022Z,25.52
2022-08-05T02:09:41.672Z,25.52
2022-08-05T02:10:29.685Z,25.52
2022-08-05T02:11:23.598Z,25.51
2022-08-05T02:12:10.164Z,25.51
2022-08-05T02:12:56.519Z,25.50
2022-08-05T02:13:53.834Z,25.50
2022-08-05T02:14:38.717Z,25.50
2022-08-05T02:15:21.967Z,25.49
2022-08-05T02:16:07.026Z,25.50
2022-08-05T02:17:04.017Z,25.49
2022-08-05T02:18:31.138Z,25.49
2022-08-05T02:18:56.680Z,25.49
2022-08-05T02:19:47.283Z,25.49
2022-08-05T02:20:31.193Z,25.48
2022-08-05T02:21:23.699Z,25.46
2022-08-05T02:22:10.685Z,25.46
2022-08-05T02:23:14.962Z,25.46
2022-08-05T02:24:06.079Z,25.46
2022-08-05T02:24:59.964Z,25.46
2022-08-05T02:25:49.154Z,25.45
2022-08-05T02:26:35.514Z,25.45
2022-08-05T02:27:29.679Z,25.46
2022-08-05T02:28:16.400Z,25.45
2022-08-05T02:29:21.394Z,25.46
2022-08-05T02:30:05.537Z,25.46
2022-08-05T02:30:54.748Z,25.45
2022-08-05T02:31:43.999Z,25.46
2022-08-05T02:32:33.702Z,25.46
2022-08-05T02:33:36.201Z,25.45
2022-08-05T02:34:24.810Z,25.45
2022-08-05T02:35:13.588Z,25.45
2022-08-05T02:36:01.195Z,25.45
2022-08-05T02:36:49.338Z,25.44
2022-08-05T02:37:38.168Z,25.44
2022-08-05T02:38:25.456Z,25.44
2022-08-05T02:39:13.833Z,25.43
2022-08-05T02:40:00.605Z,25.44
2022-08-05T02:40:50.350Z,25.43
2022-08-05T02:41:58.112Z,25.43
2022-08-05T02:42:39.369Z,25.42
2022-08-05T02:43:25.888Z,25.43
2022-08-05T02:44:13.457Z,25.41
2022-08-05T02:45:01.304Z,25.41
2022-08-05T02:45:52.046Z,25.41
2022-08-05T02:46:53.311Z,25.41
2022-08-05T02:48:06.654Z,25.41
2022-08-05T02:48:49.013Z,25.40
2022-08-05T02:49:40.660Z,25.41
2022-08-05T02:50:24.536Z,25.40
2022-08-05T02:51:09.305Z,25.39
2022-08-05T02:52:03.514Z,25.39
2022-08-05T02:52:49.244Z,25.38
2022-08-05T02:53:39.683Z,25.38
2022-08-05T02:54:36.223Z,25.39
2022-08-05T02:55:54.729Z,25.39
2022-08-05T02:56:23.367Z,25.38
2022-08-05T02:57:10.139Z,25.39
2022-08-05T02:58:15.112Z,25.38
2022-08-05T02:59:05.813Z,25.38
2022-08-05T02:59:55.477Z,25.37
2022-08-05T03:00:40.140Z,25.37
2022-08-05T03:01:28.221Z,25.37
2022-08-05T03:02:17.963Z,25.37
2022-08-05T03:03:03.598Z,25.37
2022-08-05T03:04:04.159Z,25.37
2022-08-05T03:04:55.404Z,25.37
2022-08-05T03:06:53.999Z,25.37
2022-08-05T03:06:56.650Z,25.36
2022-08-05T03:08:01.183Z,25.36
2022-08-05T03:08:48.708Z,25.35
2022-08-05T03:09:38.290Z,25.35
2022-08-05T03:10:29.570Z,25.35
2022-08-05T03:11:54.671Z,25.35
2022-08-05T03:12:24.582Z,25.35
2022-08-05T03:13:52.004Z,25.35
2022-08-05T03:14:48.161Z,25.34
2022-08-05T03:15:38.957Z,25.35
2022-08-05T03:16:28.649Z,25.34
2022-08-05T03:17:16.179Z,25.35
2022-08-05T03:18:08.818Z,25.35
2022-08-05T03:18:58.572Z,25.34
2022-08-05T03:19:48.513Z,25.34
2022-08-05T03:20:35.445Z,25.35
2022-08-05T03:21:23.543Z,25.33
2022-08-05T03:22:16.449Z,25.32
2022-08-05T03:23:03.337Z,25.34
2022-08-05T03:23:51.760Z,25.35
2022-08-05T03:24:38.016Z,25.34
2022-08-05T03:25:33.114Z,25.34
2022-08-05T03:26:31.568Z,25.34
2022-08-05T03:27:21.926Z,25.35
2022-08-05T03:28:14.066Z,25.35
2022-08-05T03:29:05.139Z,25.35
2022-08-05T03:30:07.404Z,25.34
2022-08-05T03:30:50.897Z,25.34
2022-08-05T03:31:57.231Z,25.34
2022-08-05T03:32:35.057Z,25.35
2022-08-05T03:33:22.776Z,25.35
2022-08-05T03:34:19.595Z,25.35
2022-08-05T03:35:06.939Z,25.34
2022-08-05T03:35:54.530Z,25.34
2022-08-05T03:36:45.694Z,25.35
2022-08-05T03:37:28.272Z,25.35
2022-08-05T03:38:14.688Z,25.33
2022-08-05T03:39:03.269Z,25.34
2022-08-05T03:39:59.029Z,25.34
2022-08-05T03:40:47.376Z,25.34
2022-08-05T03:41:45.218Z,25.34
2022-08-05T03:42:32.318Z,25.34
2022-08-05T03:44:07.993Z,25.35
2022-08-05T03:44:21.346Z,25.34
2022-08-05T03:45:21.586Z,25.35
2022-08-05T03:46:08.289Z,25.35
2022-08-05T03:46:56.228Z,25.36
2022-08-05T03:47:42.269Z,25.37
2022-08-05T03:48:25.821Z,25.37
2022-08-05T03:49:10.178Z,25.37
2022-08-05T03:49:53.893Z,25.37
2022-08-05T03:50:39.577Z,25.39
2022-08-05T03:52:38.978Z,25.40
2022-08-05T03:52:39.423Z,25.38
2022-08-05T03:55:06.865Z,25.41
2022-08-05T03:55:51.937Z,25.41
2022-08-05T03:56:05.325Z,25.42
2022-08-05T03:56:41.519Z,25.41
2022-08-05T03:57:41.906Z,25.42
2022-08-05T03:58:27.206Z,25.43
2022-08-05T03:59:15.857Z,25.43
2022-08-05T04:00:05.937Z,25.42
2022-08-05T04:00:53.147Z,25.43
2022-08-05T04:01:36.884Z,25.43
2022-08-05T04:02:37.825Z,25.44
2022-08-05T04:03:28.266Z,25.44
2022-08-05T04:04:14.591Z,25.45
2022-08-05T04:05:05.263Z,25.44
2022-08-05T04:05:55.935Z,25.44
2022-08-05T04:06:47.544Z,25.45
2022-08-05T04:07:33.059Z,25.46
2022-08-05T04:08:34.790Z,25.45
2022-08-05T04:09:26.304Z,25.45
2022-08-05T04:10:12.692Z,25.46
2022-08-05T04:11:03.246Z,25.46
2022-08-05T04:11:53.592Z,25.46
2022-08-05T04:13:50.610Z,25.47
2022-08-05T04:14:37.805Z,25.47
2022-08-05T04:15:27.956Z,25.47
2022-08-05T04:16:24.243Z,25.47
2022-08-05T04:17:07.484Z,25.47
2022-08-05T04:17:59.960Z,25.47
2022-08-05T04:18:44.844Z,25.48
2022-08-05T04:19:38.032Z,25.48
2022-08-05T04:20:25.064Z,25.49
2022-08-05T04:21:11.106Z,25.49
2022-08-05T04:22:09.045Z,25.49
2022-08-05T04:22:54.599Z,25.49
2022-08-05T04:24:05.998Z,25.48
2022-08-05T04:24:44.161Z,25.49
2022-08-05T04:25:56.654Z,25.49
2022-08-05T04:26:32.376Z,25.49
2022-08-05T04:27:17.921Z,25.49
2022-08-05T04:28:06.434Z,25.48
2022-08-05T04:28:58.460Z,25.49
2022-08-05T04:29:45.623Z,25.49
2022-08-05T04:30:30.717Z,25.49
2022-08-05T04:31:19.499Z,25.49
2022-08-05T04:32:02.636Z,25.49
2022-08-05T04:32:48.682Z,25.50
2022-08-05T04:34:17.140Z,25.49
2022-08-05T04:34:42.668Z,25.50
2022-08-05T04:36:16.517Z,25.50
2022-08-05T04:36:46.444Z,25.50
2022-08-05T04:38:01.076Z,25.50
2022-08-05T04:38:39.682Z,25.49
2022-08-05T04:39:27.694Z,25.50
2022-08-05T04:40:12.374Z,25.50
2022-08-05T04:41:03.549Z,25.50
2022-08-05T04:41:51.516Z,25.50
2022-08-05T04:42:35.239Z,25.50
2022-08-05T04:43:26.008Z,25.49
2022-08-05T04:44:21.553Z,25.49
2022-08-05T04:45:31.195Z,25.49
2022-08-05T04:46:28.409Z,25.50
2022-08-05T04:47:18.396Z,25.49
2022-08-05T04:48:04.601Z,25.49
2022-08-05T04:48:48.213Z,25.49
2022-08-05T04:49:38.741Z,25.48
2022-08-05T04:51:03.795Z,25.48
2022-08-05T04:51:43.888Z,25.48
2022-08-05T04:52:28.626Z,25.47
2022-08-05T04:53:17.297Z,25.47
2022-08-05T04:54:02.715Z,25.47
2022-08-05T04:54:57.491Z,25.46
2022-08-05T04:56:32.832Z,25.45
2022-08-05T04:56:58.933Z,25.46
2022-08-05T04:57:47.869Z,25.45
2022-08-05T04:58:31.476Z,25.46
2022-08-05T04:59:24.246Z,25.45
2022-08-05T05:00:23.747Z,25.46
2022-08-05T05:01:14.663Z,25.47
2022-08-05T05:02:41.337Z,25.47
2022-08-05T05:04:23.045Z,25.47
2022-08-05T05:05:26.184Z,25.47
2022-08-05T05:06:40.090Z,25.47
2022-08-05T05:07:29.711Z,25.47
2022-08-05T05:08:29.955Z,25.46
2022-08-05T05:09:17.301Z,25.47
2022-08-05T05:10:03.999Z,25.47
2022-08-05T05:10:56.227Z,25.46
2022-08-05T05:11:53.068Z,25.46
2022-08-05T05:12:39.480Z,25.46
2022-08-05T05:13:43.025Z,25.46
2022-08-05T05:14:32.074Z,25.46
2022-08-05T05:15:17.548Z,25.45
2022-08-05T05:16:21.702Z,25.45
2022-08-05T05:17:18.712Z,25.45
2022-08-05T05:18:12.182Z,25.44
2022-08-05T05:19:17.634Z,25.44
2022-08-05T05:20:01.060Z,25.43
2022-08-05T05:20:47.103Z,25.42
2022-08-05T05:21:33.101Z,25.42
2022-08-05T05:22:23.712Z,25.42
2022-08-05T05:23:20.206Z,25.41
2022-08-05T05:24:50.824Z,25.40
2022-08-05T05:25:32.972Z,25.39
2022-08-05T05:27:18.879Z,25.38
2022-08-05T05:29:14.847Z,25.36
2022-08-05T05:31:00.917Z,25.35
2022-08-05T05:32:22.703Z,25.34
2022-08-05T05:33:16.640Z,25.34
2022-08-05T05:35:03.390Z,25.33
2022-08-05T05:36:07.233Z,25.32
2022-08-05T05:37:08.872Z,25.33
2022-08-05T05:38:13.082Z,25.32
2022-08-05T05:39:05.070Z,25.32
2022-08-05T05:39:50.838Z,25.31
2022-08-05T05:40:35.094Z,25.31
2022-08-05T05:41:19.474Z,25.31
2022-08-05T05:42:14.245Z,25.31
2022-08-05T05:43:08.503Z,25.30
2022-08-05T05:43:57.984Z,25.29
2022-08-05T05:45:48.411Z,25.29
2022-08-05T05:46:35.165Z,25.29
2022-08-05T05:48:05.327Z,25.28
2022-08-05T05:48:38.765Z,25.29
2022-08-05T05:49:22.904Z,25.29
2022-08-05T05:50:09.363Z,25.29
2022-08-05T05:51:15.160Z,25.28
2022-08-05T05:52:07.373Z,25.28
2022-08-05T05:52:57.738Z,25.29
2022-08-05T05:53:57.902Z,25.28
2022-08-05T05:54:50.212Z,25.28
2022-08-05T05:55:52.219Z,25.28
2022-08-05T05:56:39.398Z,25.27
2022-08-05T05:57:42.777Z,25.28
2022-08-05T05:58:32.266Z,25.27
2022-08-05T05:59:21.916Z,25.27
2022-08-05T06:00:16.434Z,25.27
2022-08-05T06:01:12.654Z,25.27
2022-08-05T06:01:59.335Z,25.27
2022-08-05T06:02:51.427Z,25.27
2022-08-05T06:04:01.038Z,25.27
2022-08-05T06:04:51.945Z,25.26
2022-08-05T06:05:46.122Z,25.26
2022-08-05T06:06:38.534Z,25.26
2022-08-05T06:07:42.041Z,25.26
2022-08-05T06:08:33.090Z,25.26
2022-08-05T06:09:25.820Z,25.26
2022-08-05T06:10:21.005Z,25.27
2022-08-05T06:11:07.605Z,25.28
2022-08-05T06:12:01.401Z,25.27
2022-08-05T06:12:53.058Z,25.26
2022-08-05T06:13:50.427Z,25.28
2022-08-05T06:14:44.401Z,25.28
2022-08-05T06:16:29.543Z,25.27
2022-08-05T06:16:36.593Z,25.27
2022-08-05T06:17:22.001Z,25.28
2022-08-05T06:18:08.085Z,25.28
2022-08-05T06:18:53.788Z,25.27
2022-08-05T06:19:56.631Z,25.27
2022-08-05T06:20:41.871Z,25.27
2022-08-05T06:21:35.730Z,25.28
2022-08-05T06:22:18.743Z,25.27
2022-08-05T06:23:04.383Z,25.27
2022-08-05T06:23:57.427Z,25.27
2022-08-05T06:24:48.213Z,25.26
2022-08-05T06:26:12.890Z,25.25
2022-08-05T06:26:39.094Z,25.25
2022-08-05T06:28:12.820Z,25.25
2022-08-05T06:28:28.806Z,25.25
2022-08-05T06:29:43.048Z,25.25
2022-08-05T06:30:21.383Z,25.25
2022-08-05T06:31:10.956Z,25.26
2022-08-05T06:32:02.692Z,25.25
2022-08-05T06:32:46.786Z,25.26
2022-08-05T06:34:08.062Z,25.26
2022-08-05T06:34:40.036Z,25.25
2022-08-05T06:36:07.341Z,25.26
2022-08-05T06:36:57.019Z,25.25
2022-08-05T06:37:57.601Z,25.24
2022-08-05T06:38:47.742Z,25.25
2022-08-05T06:39:40.335Z,25.25
2022-08-05T06:40:32.275Z,25.25
2022-08-05T06:41:18.664Z,25.25
2022-08-05T06:42:14.820Z,25.26
2022-08-05T06:43:57.273Z,25.26
2022-08-05T06:44:16.291Z,25.27
2022-08-05T06:45:20.654Z,25.28
2022-08-05T06:46:07.110Z,25.27
2022-08-05T06:46:52.610Z,25.27
2022-08-05T06:48:47.162Z,25.27
2022-08-05T06:49:01.372Z,25.27
2022-08-05T06:50:01.057Z,25.27
2022-08-05T06:50:56.143Z,25.27
2022-08-05T06:52:04.769Z,25.27
2022-08-05T06:53:19.616Z,25.27
2022-08-05T06:54:02.372Z,25.27
2022-08-05T06:54:53.471Z,25.27
2022-08-05T06:55:37.850Z,25.26
2022-08-05T06:56:27.122Z,25.27
2022-08-05T06:57:58.163Z,25.27
2022-08-05T06:58:30.203Z,25.26
2022-08-05T06:59:20.266Z,25.26
2022-08-05T07:00:12.751Z,25.25
2022-08-05T07:01:05.041Z,25.25
2022-08-05T07:01:53.187Z,25.26
2022-08-05T07:02:39.080Z,25.25
2022-08-05T07:03:32.518Z,25.26
2022-08-05T07:04:14.260Z,25.25
2022-08-05T07:05:14.493Z,25.25
2022-08-05T07:06:10.372Z,25.25
2022-08-05T07:07:00.221Z,25.25
2022-08-05T07:07:53.438Z,25.26
2022-08-05T07:08:55.056Z,25.25
2022-08-05T07:09:40.661Z,25.25
2022-08-05T07:10:23.578Z,25.25
2022-08-05T07:11:15.770Z,25.25
2022-08-05T07:12:07.825Z,25.26
2022-08-05T07:12:52.711Z,25.25
2022-08-05T07:13:57.748Z,25.25
2022-08-05T07:14:41.284Z,25.26
2022-08-05T07:15:34.755Z,25.25
2022-08-05T07:17:58.838Z,25.24
2022-08-05T07:18:00.690Z,25.24
2022-08-05T07:18:31.505Z,25.23
2022-08-05T07:20:33.815Z,25.23
2022-08-05T07:21:26.143Z,25.23
2022-08-05T07:22:15.828Z,25.22
2022-08-05T07:22:56.903Z,25.23
2022-08-05T07:23:40.610Z,25.22
2022-08-05T07:24:31.424Z,25.22
2022-08-05T07:25:54.085Z,25.22
2022-08-05T07:26:22.671Z,25.22
2022-08-05T07:27:08.928Z,25.22
2022-08-05T07:27:57.687Z,25.22
2022-08-05T07:30:27.640Z,25.23
2022-08-05T07:31:55.447Z,25.20
2022-08-05T07:32:56.209Z,25.20
2022-08-05T07:33:52.949Z,25.19
2022-08-05T07:34:43.659Z,25.19
2022-08-05T07:36:01.695Z,25.19
2022-08-05T07:36:30.731Z,25.18
2022-08-05T07:37:24.097Z,25.18
2022-08-05T07:38:32.371Z,25.18
2022-08-05T07:40:04.556Z,25.17
2022-08-05T07:40:32.917Z,25.17
2022-08-05T07:42:13.898Z,25.16
2022-08-05T07:42:31.800Z,25.15
2022-08-05T07:43:25.627Z,25.14
2022-08-05T07:44:22.371Z,25.14
2022-08-05T07:45:13.440Z,25.13
2022-08-05T07:46:24.285Z,25.12
2022-08-05T07:47:07.857Z,25.13
2022-08-05T07:47:59.948Z,25.11
2022-08-05T07:49:04.076Z,25.11
2022-08-05T07:49:54.205Z,25.10
2022-08-05T07:50:40.920Z,25.09
2022-08-05T07:51:41.079Z,25.09
2022-08-05T07:53:05.975Z,25.07
2022-08-05T07:53:57.673Z,25.07
2022-08-05T07:54:50.334Z,25.07
2022-08-05T07:56:04.928Z,25.06
2022-08-05T07:57:01.695Z,25.05
2022-08-05T07:57:58.908Z,25.05
2022-08-05T07:58:54.874Z,25.05
2022-08-05T07:59:50.031Z,25.05
2022-08-05T08:00:38.735Z,25.05
2022-08-05T08:01:26.239Z,25.04
2022-08-05T08:02:16.446Z,25.04
2022-08-05T08:03:15.407Z,25.03
2022-08-05T08:04:03.481Z,25.02
2022-08-05T08:04:52.540Z,25.02
2022-08-05T08:05:40.186Z,25.02
2022-08-05T08:06:32.844Z,25.01
2022-08-05T08:07:22.482Z,25.00
2022-08-05T08:08:12.478Z,25.00
2022-08-05T08:08:58.654Z,24.98
2022-08-05T08:09:46.194Z,24.98
2022-08-05T08:10:36.965Z,24.97
2022-08-05T08:11:27.496Z,24.96
2022-08-05T08:12:27.419Z,24.96
2022-08-05T08:13:15.303Z,24.96
2022-08-05T08:14:04.799Z,24.95
2022-08-05T08:14:52.054Z,24.95
2022-08-05T08:16:35.755Z,24.94
2022-08-05T08:16:50.070Z,24.93
2022-08-05T08:17:49.884Z,24.94
2022-08-05T08:18:36.194Z,24.92
2022-08-05T08:20:22.955Z,24.92
2022-08-05T08:20:45.358Z,24.91
2022-08-05T08:21:36.136Z,24.90
2022-08-05T08:22:27.057Z,24.89
2022-08-05T08:24:00.156Z,24.88
2022-08-05T08:24:14.031Z,24.87
2022-08-05T08:25:03.960Z,24.87
2022-08-05T08:26:00.435Z,24.85
2022-08-05T08:26:50.926Z,24.86
2022-08-05T08:27:45.004Z,24.85
2022-08-05T08:28:36.067Z,24.86
2022-08-05T08:30:04.705Z,24.86
2022-08-05T08:30:37.687Z,24.86
2022-08-05T08:31:29.548Z,24.85
2022-08-05T08:32:13.838Z,24.86
2022-08-05T08:33:04.605Z,24.85
2022-08-05T08:33:59.539Z,24.86
2022-08-05T08:34:48.886Z,24.84
2022-08-05T08:35:41.324Z,24.84
2022-08-05T08:36:49.085Z,24.83
2022-08-05T08:37:44.961Z,24.81
2022-08-05T08:38:37.548Z,24.81
2022-08-05T08:39:29.941Z,24.80
2022-08-05T08:40:24.451Z,24.79
2022-08-05T08:41:08.833Z,24.79
2022-08-05T08:42:00.124Z,24.78
2022-08-05T08:42:52.730Z,24.79
2022-08-05T08:45:16.345Z,24.80
2022-08-05T08:45:19.419Z,24.80
2022-08-05T08:45:48.647Z,24.81
2022-08-05T08:46:37.870Z,24.80
2022-08-05T08:48:06.055Z,24.80
2022-08-05T08:48:59.383Z,24.80
2022-08-05T08:50:12.823Z,24.81
2022-08-05T08:51:03.631Z,24.81
2022-08-05T08:52:02.929Z,24.81
2022-08-05T08:52:52.898Z,24.81
2022-08-05T08:53:44.461Z,24.81
2022-08-05T08:54:27.762Z,24.80
2022-08-05T08:55:13.226Z,24.78
2022-08-05T08:56:04.543Z,24.78
2022-08-05T08:56:53.178Z,24.77
2022-08-05T08:57:48.325Z,24.76
2022-08-05T08:58:47.708Z,24.76
2022-08-05T08:59:34.573Z,24.74
2022-08-05T09:00:24.512Z,24.74
2022-08-05T09:01:21.074Z,24.73
2022-08-05T09:02:11.841Z,24.73
2022-08-05T09:03:01.446Z,24.70
2022-08-05T09:03:46.772Z,24.71
2022-08-05T09:04:36.268Z,24.70
2022-08-05T09:05:38.419Z,24.69
2022-08-05T09:06:41.755Z,24.68
2022-08-05T09:07:40.064Z,24.68
2022-08-05T09:08:34.250Z,24.67
2022-08-05T09:09:25.267Z,24.67
2022-08-05T09:10:18.226Z,24.66
2022-08-05T09:11:08.261Z,24.65
2022-08-05T09:12:15.294Z,24.65
2022-08-05T09:13:05.155Z,24.65
2022-08-05T09:14:54.359Z,24.65
2022-08-05T09:15:05.698Z,24.64
2022-08-05T09:15:54.448Z,24.64
2022-08-05T09:16:43.168Z,24.62
2022-08-05T09:17:40.718Z,24.62
2022-08-05T09:18:28.908Z,24.63
2022-08-05T09:19:36.586Z,24.61
2022-08-05T09:20:37.300Z,24.61
2022-08-05T09:22:18.455Z,24.61
2022-08-05T09:22:31.513Z,24.61
2022-08-05T09:24:16.962Z,24.61
2022-08-05T09:26:20.696Z,24.60
2022-08-05T09:27:02.299Z,24.60
2022-08-05T09:28:05.339Z,24.60
2022-08-05T09:28:52.727Z,24.59
2022-08-05T09:29:44.796Z,24.58
2022-08-05T09:30:35.454Z,24.58
2022-08-05T09:32:38.713Z,24.58
2022-08-05T09:32:41.581Z,24.58
2022-08-05T09:33:35.123Z,24.57
2022-08-05T09:34:25.998Z,24.57
2022-08-05T09:36:11.825Z,24.55
2022-08-05T09:37:00.175Z,24.54
2022-08-05T09:38:13.002Z,24.54
2022-08-05T09:39:16.383Z,24.53
2022-08-05T09:40:00.971Z,24.52
2022-08-05T09:41:03.724Z,24.53
2022-08-05T09:41:59.071Z,24.52
2022-08-05T09:42:49.024Z,24.53
2022-08-05T09:43:41.073Z,24.54
2022-08-05T09:44:24.953Z,24.54
2022-08-05T09:46:05.142Z,24.54
2022-08-05T09:46:17.345Z,24.56
2022-08-05T09:47:10.453Z,24.55
2022-08-05T09:47:55.969Z,24.54
2022-08-05T09:48:55.300Z,24.55
2022-08-05T09:50:00.487Z,24.54
2022-08-05T09:50:45.251Z,24.54
2022-08-05T09:51:39.914Z,24.54
2022-08-05T09:52:26.972Z,24.53
2022-08-05T09:53:12.078Z,24.53
2022-08-05T09:54:12.356Z,24.52
2022-08-05T09:54:59.677Z,24.52
2022-08-05T09:55:57.214Z,24.51
2022-08-05T09:57:39.624Z,24.51
2022-08-05T09:58:29.786Z,24.52
2022-08-05T09:59:17.227Z,24.52
2022-08-05T09:59:59.558Z,24.51
2022-08-05T10:00:44.405Z,24.52
2022-08-05T10:01:31.709Z,24.53
2022-08-05T10:02:13.008Z,24.54
2022-08-05T10:02:59.825Z,24.53
2022-08-05T10:03:58.772Z,24.53
2022-08-05T10:04:49.813Z,24.53
2022-08-05T10:06:54.864Z,24.54
2022-08-05T10:08:34.632Z,24.54
2022-08-05T10:08:55.307Z,24.55
2022-08-05T10:09:44.979Z,24.56
2022-08-05T10:10:32.436Z,24.56
2022-08-05T10:11:18.877Z,24.56
2022-08-05T10:12:04.783Z,24.56
2022-08-05T10:13:00.947Z,24.57
2022-08-05T10:13:49.120Z,24.57
2022-08-05T10:14:41.979Z,24.58
2022-08-05T10:15:34.367Z,24.58
2022-08-05T10:16:23.076Z,24.58
2022-08-05T10:17:08.488Z,24.58
2022-08-05T10:18:10.822Z,24.59
2022-08-05T10:18:57.291Z,24.59
2022-08-05T10:20:02.850Z,24.58
2022-08-05T10:20:42.134Z,24.58
2022-08-05T10:23:22.136Z,24.58
2022-08-05T10:24:12.809Z,24.56
2022-08-05T10:24:56.697Z,24.55
2022-08-05T10:25:42.374Z,24.56
2022-08-05T10:26:32.713Z,24.56
2022-08-05T10:27:19.242Z,24.56
2022-08-05T10:28:13.057Z,24.54
2022-08-05T10:29:05.435Z,24.52
2022-08-05T10:30:41.247Z,24.52
2022-08-05T10:32:48.002Z,24.52
2022-08-05T10:32:52.605Z,24.53
2022-08-05T10:33:05.138Z,24.53
2022-08-05T10:33:54.103Z,24.53
2022-08-05T10:34:37.849Z,24.52
2022-08-05T10:35:24.047Z,24.53
2022-08-05T10:36:23.581Z,24.52
2022-08-05T10:37:09.277Z,24.52
2022-08-05T10:37:56.636Z,24.53
2022-08-05T10:38:48.807Z,24.52
2022-08-05T10:40:03.911Z,24.52
2022-08-05T10:40:43.517Z,24.52
2022-08-05T10:41:46.721Z,24.51
2022-08-05T10:42:37.235Z,24.51
2022-08-05T10:44:40.623Z,24.52
2022-08-05T10:45:39.811Z,24.52
2022-08-05T10:46:29.938Z,24.52
2022-08-05T10:47:25.945Z,24.53
2022-08-05T10:48:30.230Z,24.53
2022-08-05T10:49:17.822Z,24.53
2022-08-05T10:50:32.545Z,24.54
2022-08-05T10:51:22.258Z,24.55
2022-08-05T10:52:19.195Z,24.54
2022-08-05T10:53:04.086Z,24.54
2022-08-05T10:54:05.787Z,24.54
2022-08-05T10:55:06.566Z,24.55
2022-08-05T10:56:04.942Z,24.55
2022-08-05T10:57:00.368Z,24.55
2022-08-05T10:57:54.898Z,24.54
2022-08-05T10:58:48.602Z,24.55
2022-08-05T11:00:03.611Z,24.56
2022-08-05T11:00:32.565Z,24.54
2022-08-05T11:01:28.254Z,24.55
2022-08-05T11:02:37.609Z,24.54
2022-08-05T11:04:30.876Z,24.55
2022-08-05T11:05:31.540Z,24.56
2022-08-05T11:06:17.547Z,24.55
2022-08-05T11:07:01.463Z,24.55
2022-08-05T11:08:02.564Z,24.54
2022-08-05T11:08:51.006Z,24.53
2022-08-05T11:09:45.532Z,24.53
2022-08-05T11:10:37.554Z,24.52
2022-08-05T11:11:33.204Z,24.53
2022-08-05T11:12:31.282Z,24.51
2022-08-05T11:13:15.070Z,24.51
2022-08-05T11:13:58.531Z,24.50
2022-08-05T11:15:19.489Z,24.49
2022-08-05T11:16:05.121Z,24.49
2022-08-05T11:17:14.060Z,24.48
2022-08-05T11:18:06.021Z,24.48
2022-08-05T11:20:10.046Z,24.48
2022-08-05T11:20:18.235Z,24.46
2022-08-05T11:21:02.356Z,24.46
2022-08-05T11:22:43.213Z,24.46
2022-08-05T11:24:02.983Z,24.45
2022-08-05T11:24:38.786Z,24.48
2022-08-05T11:26:05.243Z,24.47
2022-08-05T11:26:38.060Z,24.48
2022-08-05T11:27:22.615Z,24.49
2022-08-05T11:29:06.744Z,24.47
2022-08-05T11:31:56.713Z,24.47
2022-08-05T11:32:47.849Z,24.47
2022-08-05T11:33:47.746Z,24.48
2022-08-05T11:34:35.992Z,24.48
2022-08-05T11:35:29.897Z,24.48
2022-08-05T11:38:29.635Z,24.49
2022-08-05T11:38:30.793Z,24.49
2022-08-05T11:39:19.665Z,24.50
2022-08-05T11:40:10.824Z,24.50
2022-08-05T11:41:13.874Z,24.49
2022-08-05T11:42:04.713Z,24.48
2022-08-05T11:42:55.457Z,24.46
2022-08-05T11:44:05.846Z,24.46
2022-08-05T11:44:53.772Z,24.45
2022-08-05T11:46:27.233Z,24.46